Time;durP1;ratioP1;P1;durP2;ratioP2;P2;SDS_P1;SDS_P2;PMS_P1;PMS_P2;Temp;Humidity;BMP_temperature;BMP_pressure;BME280_temperature;BME280_humidity;BME280_pressure;Samples;Min_cycle;Max_cycle;Signal;HPM_P1;HPM_P2
2022/07/25 00:02:17;;;;;;;8.18;6.80;;;23.60;99.90;;;;;;5046210;28;20072;-81
2022/07/25 00:04:45;;;;;;;8.05;6.47;;;23.60;99.90;;;;;;5057169;28;20084;-79
2022/07/25 00:07:13;;;;;;;6.32;5.75;;;23.60;99.90;;;;;;5055349;28;20049;-82
2022/07/25 00:09:40;;;;;;;8.32;6.40;;;23.50;99.90;;;;;;5052494;28;20054;-82
2022/07/25 00:12:07;;;;;;;9.13;6.68;;;23.40;99.90;;;;;;5054725;28;20045;-80
2022/07/25 00:14:37;;;;;;;8.52;6.60;;;23.50;99.90;;;;;;5056001;28;20139;-81
2022/07/25 00:17:06;;;;;;;9.25;6.70;;;23.50;99.90;;;;;;5045958;28;20076;-81
2022/07/25 00:19:33;;;;;;;8.27;6.80;;;23.50;99.90;;;;;;5052731;28;20422;-80
2022/07/25 00:22:01;;;;;;;9.65;7.25;;;23.40;99.90;;;;;;5055924;28;20113;-81
2022/07/25 00:24:28;;;;;;;7.22;6.55;;;23.30;99.90;;;;;;5049331;28;20487;-81
2022/07/25 00:26:58;;;;;;;8.02;7.05;;;23.30;99.90;;;;;;5046933;28;20404;-79
2022/07/25 00:29:25;;;;;;;7.72;6.35;;;23.30;99.90;;;;;;5050714;28;20048;-81
2022/07/25 00:31:52;;;;;;;8.23;6.78;;;23.20;99.90;;;;;;5051377;28;20049;-81
2022/07/25 00:34:24;;;;;;;7.18;6.20;;;23.20;99.90;;;;;;5068223;23;20096;-79
2022/07/25 00:37:02;;;;;;;7.43;6.45;;;23.20;99.90;;;;;;5031330;28;20062;-80
2022/07/25 00:39:32;;;;;;;7.18;6.47;;;23.20;99.90;;;;;;5034745;28;20061;-82
2022/07/25 00:42:04;;;;;;;8.00;6.50;;;23.20;99.90;;;;;;5047100;28;20081;-80
2022/07/25 00:44:32;;;;;;;7.68;6.68;;;23.10;99.90;;;;;;5025181;28;20046;-82
2022/07/25 00:46:59;;;;;;;7.10;6.20;;;23.10;99.90;;;;;;5031063;28;20107;-82
2022/07/25 00:49:26;;;;;;;7.60;6.60;;;23.10;99.90;;;;;;5028614;28;20392;-82
2022/07/25 00:51:54;;;;;;;10.30;7.85;;;23.20;99.90;;;;;;5030181;28;20523;-82
2022/07/25 00:54:22;;;;;;;8.25;6.57;;;23.10;99.90;;;;;;5028172;28;20101;-81
2022/07/25 00:56:50;;;;;;;7.03;6.32;;;23.00;99.90;;;;;;5031690;28;20128;-80
2022/07/25 00:59:17;;;;;;;7.82;7.10;;;23.10;99.90;;;;;;5029152;28;20058;-82
2022/07/25 01:01:46;;;;;;;7.43;6.53;;;23.10;99.90;;;;;;5029083;28;20062;-82
2022/07/25 01:04:15;;;;;;;7.05;6.35;;;23.00;99.90;;;;;;5028989;28;20085;-82
2022/07/25 01:06:43;;;;;;;7.75;7.05;;;23.00;99.90;;;;;;5032601;28;20073;-82
2022/07/25 01:09:11;;;;;;;6.90;6.20;;;23.00;99.90;;;;;;5025369;28;20046;-82
2022/07/25 01:11:38;;;;;;;7.32;6.60;;;23.00;99.90;;;;;;5030427;28;20080;-82
2022/07/25 01:14:08;;;;;;;7.72;6.93;;;23.00;99.90;;;;;;5030011;28;20089;-78
2022/07/25 01:16:35;;;;;;;9.27;7.18;;;23.00;99.90;;;;;;5028411;28;20057;-80
2022/07/25 01:19:03;;;;;;;7.20;6.50;;;22.90;99.90;;;;;;5033572;28;20109;-80
2022/07/25 01:21:29;;;;;;;7.93;7.03;;;22.90;99.90;;;;;;5042309;28;20049;-81
2022/07/25 01:23:56;;;;;;;7.68;6.97;;;22.90;99.90;;;;;;5030589;28;20132;-81
2022/07/25 01:26:23;;;;;;;7.95;7.03;;;22.80;99.90;;;;;;5027751;28;20061;-82
2022/07/25 01:28:51;;;;;;;7.90;7.10;;;22.80;99.90;;;;;;5027453;28;20050;-78
2022/07/25 01:31:20;;;;;;;8.15;7.43;;;22.80;99.90;;;;;;5028797;28;20057;-79
2022/07/25 01:33:47;;;;;;;7.72;6.95;;;22.80;99.90;;;;;;5031894;28;20049;-81
2022/07/25 01:36:15;;;;;;;9.80;7.35;;;22.80;99.90;;;;;;5029367;28;20128;-82
2022/07/25 01:38:45;;;;;;;10.07;7.15;;;22.80;99.90;;;;;;5028990;28;20049;-82
2022/07/25 01:41:19;;;;;;;8.27;7.32;;;22.70;99.90;;;;;;5025851;28;20056;-81
2022/07/25 01:43:48;;;;;;;9.45;7.32;;;22.80;99.90;;;;;;5030344;28;20096;-80
2022/07/25 01:46:15;;;;;;;9.27;7.97;;;22.80;99.90;;;;;;5030306;28;20087;-82
2022/07/25 01:48:42;;;;;;;7.70;6.88;;;22.80;99.90;;;;;;5029639;28;20117;-81
2022/07/25 01:51:09;;;;;;;7.88;7.18;;;22.80;99.90;;;;;;5028547;28;20042;-82
2022/07/25 01:53:36;;;;;;;9.65;6.90;;;22.70;99.90;;;;;;5024639;28;20046;-80
2022/07/25 01:56:05;;;;;;;8.00;7.15;;;22.70;99.90;;;;;;5030956;28;20053;-82
2022/07/25 01:58:36;;;;;;;9.40;7.13;;;22.70;99.90;;;;;;5031695;28;20099;-81
2022/07/25 02:01:03;;;;;;;8.20;7.05;;;22.70;99.90;;;;;;5028655;28;20064;-82
2022/07/25 02:03:30;;;;;;;9.15;6.80;;;22.70;99.90;;;;;;5031974;28;20054;-82
2022/07/25 02:06:02;;;;;;;8.23;7.30;;;22.70;99.90;;;;;;5028580;28;20058;-80
2022/07/25 02:08:30;;;;;;;9.60;6.88;;;22.70;99.90;;;;;;5028305;28;20054;-82
2022/07/25 02:10:59;;;;;;;8.00;7.13;;;22.60;99.90;;;;;;5031975;28;20058;-82
2022/07/25 02:13:28;;;;;;;10.00;8.30;;;22.60;99.90;;;;;;5028308;28;20069;-81
2022/07/25 02:15:55;;;;;;;9.43;7.55;;;22.70;99.90;;;;;;5031438;28;20045;-81
2022/07/25 02:18:22;;;;;;;9.98;7.50;;;22.70;99.90;;;;;;5031278;28;20061;-79
2022/07/25 02:20:49;;;;;;;11.27;7.70;;;22.70;99.90;;;;;;5031864;28;20049;-82
2022/07/25 02:23:16;;;;;;;7.40;6.70;;;22.70;99.90;;;;;;5038154;28;20111;-81
2022/07/25 02:25:43;;;;;;;8.45;7.53;;;22.60;99.90;;;;;;5041147;28;20053;-81
2022/07/25 02:28:09;;;;;;;10.57;8.02;;;22.60;99.90;;;;;;5035568;28;20056;-79
2022/07/25 02:30:37;;;;;;;10.73;7.80;;;22.50;99.90;;;;;;5040856;28;20053;-79
2022/07/25 02:33:04;;;;;;;8.80;7.72;;;22.40;99.90;;;;;;5036270;28;20050;-82
2022/07/25 02:35:31;;;;;;;7.90;7.10;;;22.40;99.90;;;;;;5028902;28;20539;-80
2022/07/25 02:37:58;;;;;;;10.73;6.85;;;22.40;99.90;;;;;;5030621;28;20463;-82
2022/07/25 02:40:25;;;;;;;9.52;7.45;;;22.30;99.90;;;;;;5026630;28;20463;-81
2022/07/25 02:42:52;;;;;;;8.82;7.78;;;22.40;99.90;;;;;;5030102;28;20075;-81
2022/07/25 02:45:19;;;;;;;9.48;7.25;;;22.40;99.90;;;;;;5028567;28;20113;-82
2022/07/25 02:47:46;;;;;;;9.65;7.35;;;22.40;99.90;;;;;;5029003;28;20458;-81
2022/07/25 02:50:13;;;;;;;9.02;7.45;;;22.30;99.90;;;;;;5030073;28;20053;-82
2022/07/25 02:52:41;;;;;;;8.68;7.78;;;22.30;99.90;;;;;;5031328;28;20423;-79
2022/07/25 02:55:11;;;;;;;9.18;8.02;;;22.20;99.90;;;;;;5021541;28;20054;-80
2022/07/25 02:57:40;;;;;;;9.75;7.63;;;22.10;99.90;;;;;;5027286;28;20042;-82
2022/07/25 03:00:10;;;;;;;8.23;6.70;;;22.10;99.90;;;;;;5027995;28;20061;-81
2022/07/25 03:02:37;;;;;;;8.40;7.50;;;22.00;99.90;;;;;;5029388;28;20561;-82
2022/07/25 03:05:11;;;;;;;11.20;7.30;;;22.00;99.90;;;;;;5036847;28;20123;-81
2022/07/25 03:07:38;;;;;;;11.48;8.38;;;22.10;99.90;;;;;;5028518;28;20131;-81
2022/07/25 03:10:09;;;;;;;;;;;22.00;99.90;;;;;;5029969;28;20454;-82
2022/07/25 03:12:38;;;;;;;9.90;7.90;;;21.90;99.90;;;;;;5020177;28;20045;-81
2022/07/25 03:15:06;;;;;;;8.35;7.50;;;21.90;99.90;;;;;;5029055;28;20057;-82
2022/07/25 03:17:33;;;;;;;8.02;7.10;;;21.90;99.90;;;;;;5029612;28;20062;-82
2022/07/25 03:20:00;;;;;;;8.77;7.90;;;21.90;99.90;;;;;;5027531;28;20148;-81
2022/07/25 03:22:28;;;;;;;8.60;7.32;;;22.00;99.90;;;;;;5031463;28;20400;-80
2022/07/25 03:24:56;;;;;;;10.10;7.30;;;21.90;99.90;;;;;;5029962;28;20128;-82
2022/07/25 03:27:23;;;;;;;8.85;7.57;;;21.90;99.90;;;;;;5027170;28;20061;-81
2022/07/25 03:29:50;;;;;;;10.15;8.65;;;21.90;99.90;;;;;;5029883;28;20045;-82
2022/07/25 03:32:17;;;;;;;7.70;6.97;;;21.80;99.90;;;;;;5027766;28;20057;-82
2022/07/25 03:34:45;;;;;;;10.35;7.97;;;21.90;99.90;;;;;;5029043;28;20072;-82
2022/07/25 03:37:15;;;;;;;8.45;7.65;;;21.90;99.90;;;;;;5023493;28;20512;-80
2022/07/25 03:39:42;;;;;;;8.30;7.53;;;21.80;99.90;;;;;;5028703;28;20132;-81
2022/07/25 03:42:12;;;;;;;9.60;7.53;;;21.70;99.90;;;;;;5028749;28;20050;-82
2022/07/25 03:44:41;;;;;;;9.43;7.43;;;21.80;99.90;;;;;;5027169;28;20060;-82
2022/07/25 03:47:08;;;;;;;9.07;7.43;;;21.80;99.90;;;;;;5030293;28;20289;-81
2022/07/25 03:49:46;;;;;;;9.35;8.18;;;21.60;99.90;;;;;;5027918;28;20112;-81
2022/07/25 03:52:13;;;;;;;13.57;8.13;;;21.60;99.90;;;;;;5028964;28;20049;-82
2022/07/25 03:54:43;;;;;;;8.88;7.40;;;21.60;99.90;;;;;;5026876;28;20045;-79
2022/07/25 03:57:12;;;;;;;9.13;7.93;;;21.50;99.90;;;;;;5036119;28;20054;-79
2022/07/25 03:59:39;;;;;;;8.90;7.88;;;21.50;99.90;;;;;;5037968;28;20053;-81
2022/07/25 04:02:07;;;;;;;9.43;8.05;;;21.50;99.90;;;;;;5034444;28;20076;-80
2022/07/25 04:04:34;;;;;;;8.00;7.20;;;21.50;99.90;;;;;;5031472;28;20050;-80
2022/07/25 04:07:01;;;;;;;9.93;7.97;;;21.40;99.90;;;;;;5026164;28;20061;-82
2022/07/25 04:09:28;;;;;;;8.18;7.38;;;21.40;99.90;;;;;;5033307;28;20049;-80
2022/07/25 04:11:59;;;;;;;8.90;8.00;;;21.50;99.90;;;;;;5032928;28;20455;-82
2022/07/25 04:14:29;;;;;;;9.50;8.48;;;21.50;99.90;;;;;;5033278;28;20049;-82
2022/07/25 04:16:56;;;;;;;11.43;8.93;;;21.40;99.90;;;;;;5030879;28;20060;-80
2022/07/25 04:19:23;;;;;;;10.85;8.15;;;21.50;99.90;;;;;;5032457;28;20057;-83
2022/07/25 04:21:57;;;;;;;8.75;7.88;;;21.50;99.90;;;;;;5032340;28;20061;-82
2022/07/25 04:24:30;;;;;;;9.13;8.10;;;21.40;99.90;;;;;;5030002;28;20108;-83
2022/07/25 04:27:01;;;;;;;9.68;8.65;;;21.50;99.90;;;;;;5028407;28;20108;-81
2022/07/25 04:29:33;;;;;;;9.60;7.55;;;21.40;99.90;;;;;;5030971;28;20050;-82
2022/07/25 04:32:00;;;;;;;12.87;7.90;;;21.40;99.90;;;;;;5033018;28;20080;-79
2022/07/25 04:34:30;;;;;;;8.48;7.63;;;21.50;99.90;;;;;;5029977;23;20512;-82
2022/07/25 04:36:57;;;;;;;13.45;9.55;;;21.50;99.90;;;;;;5022341;28;20053;-83
2022/07/25 04:39:24;;;;;;;12.57;8.63;;;21.50;99.90;;;;;;5013020;28;20574;-81
2022/07/25 04:41:50;;;;;;;9.13;8.23;;;21.50;99.90;;;;;;5022174;28;20132;-81
2022/07/25 04:44:18;;;;;;;10.77;8.23;;;21.40;99.90;;;;;;5009823;28;20424;-81
2022/07/25 04:46:45;;;;;;;11.38;9.02;;;21.40;99.90;;;;;;5022177;28;20050;-82
2022/07/25 04:49:12;;;;;;;9.00;8.10;;;21.40;99.90;;;;;;5021372;28;20048;-82
2022/07/25 04:51:42;;;;;;;10.52;8.63;;;21.40;99.90;;;;;;5021837;28;20137;-83
2022/07/25 04:54:09;;;;;;;9.73;8.73;;;21.50;99.90;;;;;;5021314;28;20058;-82
2022/07/25 04:56:38;;;;;;;10.13;7.97;;;21.50;99.90;;;;;;5021376;28;20415;-81
2022/07/25 04:59:05;;;;;;;9.70;7.03;;;21.50;99.90;;;;;;5032971;28;20061;-80
2022/07/25 05:01:33;;;;;;;9.00;8.00;;;21.60;99.90;;;;;;5021383;28;20076;-83
2022/07/25 05:04:00;;;;;;;9.93;8.05;;;21.70;99.90;;;;;;5021608;28;20057;-80
2022/07/25 05:06:28;;;;;;;10.13;8.18;;;21.90;99.90;;;;;;5020554;28;20060;-82
2022/07/25 05:08:55;;;;;;;12.20;7.88;;;21.90;99.90;;;;;;5020271;28;20046;-82
2022/07/25 05:11:22;;;;;;;8.20;7.40;;;22.00;99.90;;;;;;5019930;28;20483;-82
2022/07/25 05:13:50;;;;;;;9.48;8.05;;;22.10;99.90;;;;;;5020902;28;20054;-81
2022/07/25 05:16:20;;;;;;;8.35;7.00;;;22.20;99.90;;;;;;5020638;28;20054;-80
2022/07/25 05:18:49;;;;;;;8.07;7.27;;;22.30;99.90;;;;;;5021523;28;20054;-82
2022/07/25 05:21:17;;;;;;;9.00;7.40;;;22.50;99.90;;;;;;5017582;28;20656;-82
2022/07/25 05:23:44;;;;;;;7.70;6.97;;;22.60;99.90;;;;;;5022175;28;20142;-84
2022/07/25 05:26:11;;;;;;;8.15;7.13;;;22.70;99.90;;;;;;5019645;28;20419;-83
2022/07/25 05:28:38;;;;;;;8.20;7.32;;;22.80;99.90;;;;;;5019661;28;20042;-83
2022/07/25 05:31:05;;;;;;;9.80;7.50;;;22.90;99.90;;;;;;5019789;28;20050;-81
2022/07/25 05:33:33;;;;;;;8.52;7.55;;;23.00;99.90;;;;;;5021152;28;20335;-83
2022/07/25 05:36:00;;;;;;;10.90;7.05;;;23.00;99.90;;;;;;5032059;28;20096;-80
2022/07/25 05:38:26;;;;;;;9.60;8.60;;;23.10;99.90;;;;;;5020194;28;20520;-82
2022/07/25 05:40:53;;;;;;;7.72;6.93;;;23.20;99.90;;;;;;5020505;28;20085;-80
2022/07/25 05:43:20;;;;;;;7.05;6.40;;;23.20;99.90;;;;;;5019565;28;20069;-82
2022/07/25 05:45:48;;;;;;;9.43;7.32;;;23.30;99.90;;;;;;5018873;28;20072;-83
2022/07/25 05:48:15;;;;;;;9.70;6.88;;;23.40;99.90;;;;;;5016211;28;20050;-81
2022/07/25 05:50:42;;;;;;;8.63;7.75;;;23.40;99.90;;;;;;5019590;28;20085;-82
2022/07/25 05:53:09;;;;;;;8.25;7.45;;;23.40;99.90;;;;;;5020321;28;20054;-79
2022/07/25 05:55:36;;;;;;;8.23;7.38;;;23.40;99.90;;;;;;5021440;28;20522;-82
2022/07/25 05:58:08;;;;;;;;;;;23.50;99.90;;;;;;5020286;28;20073;-83
2022/07/25 06:00:36;;;;;;;8.63;7.15;;;23.50;99.90;;;;;;5012169;28;19971;-81
2022/07/25 06:03:03;;;;;;;10.65;7.07;;;23.60;99.90;;;;;;5019157;28;20046;-80
2022/07/25 06:05:30;;;;;;;7.50;6.75;;;23.60;99.90;;;;;;5018566;28;20061;-82
2022/07/25 06:07:57;;;;;;;7.22;6.63;;;23.70;99.90;;;;;;5019041;28;20081;-82
2022/07/25 06:10:25;;;;;;;13.80;9.07;;;23.80;99.90;;;;;;5018744;28;20054;-82
2022/07/25 06:12:52;;;;;;;9.57;6.82;;;23.80;99.90;;;;;;5016526;28;20448;-81
2022/07/25 06:15:19;;;;;;;8.15;7.03;;;23.90;99.90;;;;;;5017218;28;20129;-81
2022/07/25 06:17:52;;;;;;;9.13;7.07;;;23.90;99.90;;;;;;5019787;28;20455;-81
2022/07/25 06:20:20;;;;;;;13.60;7.55;;;24.00;99.90;;;;;;5015613;28;20516;-82
2022/07/25 06:22:47;;;;;;;9.05;7.78;;;24.10;99.90;;;;;;5019563;28;20059;-82
2022/07/25 06:25:15;;;;;;;8.40;6.93;;;24.20;99.90;;;;;;5015696;28;20077;-80
2022/07/25 06:27:42;;;;;;;7.43;6.72;;;24.30;99.90;;;;;;5019291;28;20057;-79
2022/07/25 06:30:11;;;;;;;12.38;6.65;;;24.30;99.90;;;;;;5019950;28;20050;-82
2022/07/25 06:32:46;;;;;;;9.48;7.03;;;24.40;99.90;;;;;;5015121;28;20050;-80
2022/07/25 06:35:12;;;;;;;8.93;6.85;;;24.50;99.90;;;;;;5018799;28;20076;-82
2022/07/25 06:37:39;;;;;;;7.63;6.30;;;24.50;99.90;;;;;;5020043;28;20126;-81
2022/07/25 06:40:07;;;;;;;7.72;6.88;;;24.60;99.90;;;;;;5020252;28;20088;-80
2022/07/25 06:42:39;;;;;;;6.90;6.20;;;24.70;99.90;;;;;;5015414;28;20057;-83
2022/07/25 06:45:08;;;;;;;7.38;6.60;;;24.70;99.90;;;;;;5015767;28;20108;-83
2022/07/25 06:47:39;;;;;;;10.77;6.30;;;24.80;99.90;;;;;;5018903;28;20058;-83
2022/07/25 06:50:09;;;;;;;7.10;5.35;;;24.90;99.90;;;;;;5027278;28;20104;-83
2022/07/25 06:52:37;;;;;;;6.32;5.72;;;25.00;99.90;;;;;;5015508;28;20042;-83
2022/07/25 06:55:06;;;;;;;9.70;5.90;;;25.10;99.90;;;;;;5019447;28;20049;-83
2022/07/25 06:57:33;;;;;;;6.22;5.63;;;25.20;99.90;;;;;;5020504;28;20054;-84
2022/07/25 07:00:00;;;;;;;7.60;5.25;;;25.30;99.90;;;;;;5020273;28;20057;-81
2022/07/25 07:02:27;;;;;;;9.23;6.00;;;25.40;99.90;;;;;;5020534;28;20118;-83
2022/07/25 07:04:53;;;;;;;6.00;5.43;;;25.50;99.90;;;;;;5019058;28;20113;-82
2022/07/25 07:07:20;;;;;;;7.38;6.10;;;25.60;99.90;;;;;;5019723;28;20052;-81
2022/07/25 07:09:47;;;;;;;6.38;5.68;;;25.80;99.90;;;;;;5018025;28;20061;-83
2022/07/25 07:12:13;;;;;;;6.57;5.60;;;25.90;99.90;;;;;;5020706;28;20054;-85
2022/07/25 07:14:42;;;;;;;7.05;5.68;;;25.90;99.90;;;;;;5019707;28;20076;-83
2022/07/25 07:17:09;;;;;;;5.75;5.20;;;26.00;99.90;;;;;;5019837;28;20053;-83
2022/07/25 07:19:42;;;;;;;6.72;5.32;;;26.10;99.90;;;;;;5016033;28;20073;-82
2022/07/25 07:22:09;;;;;;;6.30;5.70;;;26.20;99.90;;;;;;5023311;28;20050;-81
2022/07/25 07:24:36;;;;;;;6.25;5.13;;;26.20;99.90;;;;;;5019331;28;20233;-83
2022/07/25 07:27:10;;;;;;;6.20;5.60;;;26.30;99.90;;;;;;5015701;28;20050;-84
2022/07/25 07:29:37;;;;;;;7.35;6.00;;;26.30;99.90;;;;;;5020179;28;20050;-83
2022/07/25 07:32:05;;;;;;;7.00;5.47;;;26.40;99.90;;;;;;5019054;28;20124;-84
2022/07/25 07:34:32;;;;;;;7.20;5.93;;;26.40;99.90;;;;;;5020158;28;20057;-84
2022/07/25 07:36:59;;;;;;;6.15;5.55;;;26.60;99.90;;;;;;5017424;28;20559;-84
2022/07/25 07:39:26;;;;;;;5.82;5.22;;;26.60;99.90;;;;;;5019734;28;20042;-81
2022/07/25 07:41:52;;;;;;;7.35;6.15;;;26.60;99.90;;;;;;5018876;28;20547;-81
2022/07/25 07:44:19;;;;;;;6.95;5.88;;;26.70;99.90;;;;;;5017897;28;20054;-82
2022/07/25 07:46:47;;;;;;;9.65;6.22;;;26.70;99.90;;;;;;5017783;28;20077;-84
2022/07/25 07:49:14;;;;;;;6.88;5.57;;;26.70;99.90;;;;;;5017653;28;20086;-84
2022/07/25 07:51:41;;;;;;;6.75;5.50;;;26.80;99.90;;;;;;5019476;28;20348;-82
2022/07/25 07:56:53;;;;;;;6.72;5.50;;;26.90;99.90;;;;;;5019260;28;20048;-81
2022/07/25 07:59:20;;;;;;;12.07;6.10;;;27.00;99.90;;;;;;5014837;28;20136;-83
2022/07/25 08:01:47;;;;;;;7.32;5.70;;;27.00;99.90;;;;;;5018955;28;20443;-81
2022/07/25 08:04:14;;;;;;;6.10;5.50;;;27.00;99.90;;;;;;5018936;28;20050;-83
2022/07/25 08:06:42;;;;;;;8.80;5.60;;;27.10;99.90;;;;;;5017619;28;20097;-84
2022/07/25 08:09:08;;;;;;;5.93;5.30;;;27.10;99.90;;;;;;5018550;28;20515;-85
2022/07/25 08:11:35;;;;;;;6.50;5.85;;;27.10;99.90;;;;;;5019433;28;20052;-83
2022/07/25 08:14:04;;;;;;;6.38;5.35;;;27.20;99.90;;;;;;5019163;28;20495;-83
2022/07/25 08:16:31;;;;;;;7.10;5.72;;;27.30;99.90;;;;;;5018443;28;20049;-82
2022/07/25 08:18:58;;;;;;;6.22;5.38;;;27.30;99.90;;;;;;5018429;28;20089;-84
2022/07/25 08:21:25;;;;;;;6.00;5.28;;;27.30;99.90;;;;;;5018848;28;20112;-81
2022/07/25 08:23:51;;;;;;;6.68;5.30;;;27.40;99.90;;;;;;5018822;28;20085;-82
2022/07/25 08:26:18;;;;;;;7.65;5.85;;;27.40;99.90;;;;;;5018582;28;20141;-84
2022/07/25 08:28:45;;;;;;;8.80;5.47;;;27.40;99.90;;;;;;5019266;28;20089;-81
2022/07/25 08:31:12;;;;;;;6.65;5.30;;;27.50;99.90;;;;;;5018883;28;20076;-83
2022/07/25 08:33:39;;;;;;;6.05;5.43;;;27.60;99.90;;;;;;5018432;28;20184;-83
2022/07/25 08:36:09;;;;;;;6.32;5.68;;;27.60;99.90;;;;;;5019248;28;20555;-83
2022/07/25 08:38:36;;;;;;;;;;;27.60;99.90;;;;;;5015077;28;20053;-84
2022/07/25 08:41:03;;;;;;;6.85;4.82;;;27.70;99.90;;;;;;5018807;28;19964;-84
2022/07/25 08:43:31;;;;;;;6.25;5.05;;;27.80;99.90;;;;;;5017933;28;20081;-81
2022/07/25 08:46:00;;;;;;;8.90;6.25;;;27.80;99.90;;;;;;5017358;28;20456;-84
2022/07/25 08:48:28;;;;;;;8.73;5.65;;;27.90;99.90;;;;;;5020722;28;20057;-83
2022/07/25 08:50:56;;;;;;;7.63;5.20;;;27.90;99.90;;;;;;5017676;28;20049;-82
2022/07/25 08:53:24;;;;;;;6.15;5.13;;;28.00;99.90;;;;;;5021153;28;20046;-83
2022/07/25 08:56:05;;;;;;;7.72;5.25;;;28.00;99.90;;;;;;5022995;28;20129;-81
2022/07/25 08:58:40;;;;;;;7.80;5.68;;;28.00;99.90;;;;;;5010501;28;20125;-84
2022/07/25 09:01:07;;;;;;;6.15;5.38;;;28.10;99.90;;;;;;5022616;28;20050;-81
2022/07/25 09:03:35;;;;;;;6.13;5.35;;;28.20;99.90;;;;;;5020749;28;20084;-82
2022/07/25 09:06:13;;;;;;;7.05;5.32;;;28.30;99.90;;;;;;5018939;28;20054;-85
2022/07/25 09:08:50;;;;;;;6.60;5.45;;;28.30;99.90;;;;;;5020970;28;20057;-83
2022/07/25 09:11:45;;;;;;;6.20;5.35;;;28.20;99.90;;;;;;5019063;28;20053;-83
2022/07/25 09:14:12;;;;;;;8.23;5.20;;;28.40;99.90;;;;;;5020214;28;20075;-83
2022/07/25 09:16:42;;;;;;;6.95;5.80;;;28.40;99.90;;;;;;5022664;28;20049;-83
2022/07/25 09:19:13;;;;;;;7.18;5.32;;;28.50;99.90;;;;;;5023008;28;20070;-83
2022/07/25 09:21:42;;;;;;;6.18;5.57;;;28.50;99.90;;;;;;5020626;28;20117;-83
2022/07/25 09:24:17;;;;;;;8.48;6.00;;;28.50;99.90;;;;;;5021286;28;20514;-80
2022/07/25 09:26:51;;;;;;;6.97;5.35;;;28.50;99.90;;;;;;5021214;28;20088;-81
2022/07/25 09:29:21;;;;;;;7.20;5.55;;;28.50;99.90;;;;;;5017965;28;20623;-84
2022/07/25 09:31:48;;;;;;;;;;;28.60;99.90;;;;;;5022070;28;20129;-84
2022/07/25 09:34:27;;;;;;;5.78;5.28;;;28.60;99.90;;;;;;5020781;28;20031;-84
2022/07/25 09:36:54;;;;;;;6.00;5.40;;;28.60;99.90;;;;;;5018653;28;20437;-82
2022/07/25 09:39:41;;;;;;;6.70;6.07;;;28.80;99.90;;;;;;5020327;28;20093;-83
2022/07/25 09:42:25;;;;;;;6.35;5.47;;;28.80;99.90;;;;;;5019522;28;20049;-84
2022/07/25 09:45:06;;;;;;;5.97;5.32;;;28.90;99.90;;;;;;5018202;28;20042;-81
2022/07/25 09:47:36;;;;;;;8.23;5.22;;;29.00;99.90;;;;;;5029272;28;20096;-84
2022/07/25 09:50:05;;;;;;;6.03;5.45;;;29.00;99.90;;;;;;5014158;28;20110;-84
2022/07/25 09:52:32;;;;;;;8.48;5.57;;;29.10;99.90;;;;;;5019761;28;20133;-83
2022/07/25 09:55:02;;;;;;;6.80;5.45;;;29.10;99.90;;;;;;5021657;28;20089;-80
2022/07/25 09:57:29;;;;;;;8.07;4.93;;;29.10;99.90;;;;;;5020776;28;20045;-83
2022/07/25 09:59:59;;;;;;;5.53;5.00;;;29.20;99.90;;;;;;5020602;28;20141;-84
2022/07/25 10:02:31;;;;;;;7.78;4.55;;;29.30;99.90;;;;;;5021184;28;20046;-81
2022/07/25 10:05:36;;;;;;;9.43;4.70;;;29.40;99.90;;;;;;5021421;28;20081;-84
2022/07/25 10:08:06;;;;;;;5.18;4.32;;;29.40;99.90;;;;;;5016798;28;20516;-83
2022/07/25 10:10:38;;;;;;;;;;;29.50;99.90;;;;;;5020466;28;20104;-83
2022/07/25 10:13:10;;;;;;;7.20;5.07;;;29.50;99.90;;;;;;5020340;28;20475;-81
2022/07/25 10:15:41;;;;;;;5.40;4.90;;;29.60;99.90;;;;;;5017353;28;20109;-84
2022/07/25 10:18:09;;;;;;;7.82;5.30;;;29.80;99.90;;;;;;5020518;28;20046;-81
2022/07/25 10:20:36;;;;;;;7.50;5.05;;;29.80;99.90;;;;;;5021124;28;20144;-83
2022/07/25 10:23:21;;;;;;;7.45;5.22;;;29.90;99.90;;;;;;5019951;28;20057;-85
2022/07/25 10:26:09;;;;;;;8.27;5.07;;;29.90;99.90;;;;;;5019004;28;20081;-85
2022/07/25 10:28:48;;;;;;;9.30;7.10;;;30.00;99.90;;;;;;5018753;28;20060;-85
2022/07/25 10:31:24;;;;;;;6.03;5.20;;;30.20;99.90;;;;;;5017108;28;20137;-84
2022/07/25 10:33:54;;;;;;;7.07;5.07;;;30.30;99.90;;;;;;5020620;28;20396;-84
2022/07/25 10:36:22;;;;;;;8.88;4.88;;;30.40;99.90;;;;;;5015064;28;20082;-80
2022/07/25 10:38:56;;;;;;;10.07;5.28;;;30.40;99.90;;;;;;5018864;28;20062;-80
2022/07/25 10:41:27;;;;;;;8.38;5.40;;;30.50;99.90;;;;;;5017868;28;20088;-80
2022/07/25 10:44:01;;;;;;;5.40;4.70;;;30.60;99.90;;;;;;5022131;28;20056;-79
2022/07/25 10:46:29;;;;;;;6.50;4.38;;;30.60;99.90;;;;;;5019608;28;20443;-81
2022/07/25 10:49:02;;;;;;;8.60;4.70;;;30.60;99.90;;;;;;5018854;28;20132;-81
2022/07/25 10:51:36;;;;;;;5.75;4.07;;;30.70;99.90;;;;;;5019547;28;20050;-84
2022/07/25 10:54:12;;;;;;;6.75;5.07;;;30.70;99.90;;;;;;5019071;28;20096;-84
2022/07/25 10:56:57;;;;;;;6.05;4.68;;;30.70;99.90;;;;;;5018626;28;20079;-84
2022/07/25 10:59:33;;;;;;;7.22;5.07;;;30.80;99.90;;;;;;5016460;28;20459;-80
2022/07/25 11:02:01;;;;;;;5.85;4.72;;;30.90;99.90;;;;;;5014909;28;20113;-82
2022/07/25 11:04:29;;;;;;;5.40;4.53;;;31.00;99.90;;;;;;5016859;28;20050;-82
2022/07/25 11:06:56;;;;;;;6.53;4.57;;;31.20;99.90;;;;;;5017897;28;20092;-82
2022/07/25 11:09:25;;;;;;;6.22;4.30;;;31.30;99.90;;;;;;5019022;28;20049;-83
2022/07/25 11:11:58;;;;;;;6.28;4.30;;;31.50;99.90;;;;;;5014179;28;20048;-80
2022/07/25 11:14:40;;;;;;;5.60;4.28;;;31.70;99.90;;;;;;5022694;28;20054;-82
2022/07/25 11:17:21;;;;;;;4.60;4.20;;;31.90;99.90;;;;;;5015151;28;20412;-82
2022/07/25 11:19:59;;;;;;;8.13;4.13;;;32.10;99.90;;;;;;5019254;28;20455;-83
2022/07/25 11:22:28;;;;;;;4.63;4.22;;;32.20;99.90;;;;;;5016576;28;20053;-82
2022/07/25 11:24:56;;;;;;;5.57;4.70;;;32.20;99.90;;;;;;5019295;28;20092;-78
2022/07/25 11:27:31;;;;;;;7.43;3.92;;;32.30;99.90;;;;;;5023794;28;20050;-81
2022/07/25 11:30:09;;;;;;;3.88;3.58;;;32.50;99.90;;;;;;5015641;28;20077;-79
2022/07/25 11:32:43;;;;;;;5.32;4.72;;;32.50;99.90;;;;;;5019410;28;20050;-82
2022/07/25 11:35:12;;;;;;;8.73;4.55;;;32.60;99.90;;;;;;5016134;28;20059;-82
2022/07/25 11:37:41;;;;;;;6.45;4.22;;;32.60;99.90;;;;;;5019342;28;20106;-81
2022/07/25 11:40:09;;;;;;;5.10;4.32;;;32.60;99.90;;;;;;5018662;28;20078;-80
2022/07/25 11:42:40;;;;;;;6.50;4.65;;;32.50;99.90;;;;;;5018784;28;20053;-80
2022/07/25 11:45:24;;;;;;;5.05;4.07;;;32.50;99.90;;;;;;5017852;28;20085;-81
2022/07/25 11:48:10;;;;;;;4.93;4.28;;;32.50;99.90;;;;;;5019401;28;20527;-81
2022/07/25 11:50:40;;;;;;;5.55;4.45;;;32.50;99.90;;;;;;5016887;28;20121;-79
2022/07/25 11:53:17;;;;;;;5.80;4.07;;;32.50;99.90;;;;;;5018203;28;20088;-82
2022/07/25 11:55:44;;;;;;;7.70;4.43;;;32.50;99.90;;;;;;5019591;28;20049;-82
2022/07/25 11:58:12;;;;;;;7.22;4.50;;;32.50;99.90;;;;;;5019401;28;20050;-80
2022/07/25 12:00:43;;;;;;;10.13;4.75;;;32.60;99.90;;;;;;5019728;28;20486;-82
2022/07/25 12:03:13;;;;;;;7.30;4.55;;;32.70;99.90;;;;;;5019330;28;20084;-81
2022/07/25 12:05:46;;;;;;;5.68;3.95;;;32.70;99.90;;;;;;5019100;28;20057;-82
2022/07/25 12:08:18;;;;;;;5.97;3.83;;;32.60;99.90;;;;;;5026986;28;20057;-80
2022/07/25 12:10:47;;;;;;;6.32;4.60;;;32.60;99.90;;;;;;5017898;28;20066;-83
2022/07/25 12:13:28;;;;;;;5.10;4.07;;;32.70;99.90;;;;;;5019141;28;20046;-82
2022/07/25 12:15:56;;;;;;;5.93;4.22;;;32.70;99.90;;;;;;5015979;28;20173;-82
2022/07/25 12:18:23;;;;;;;4.55;3.78;;;32.70;99.90;;;;;;5018728;28;20081;-81
2022/07/25 12:20:51;;;;;;;6.30;4.57;;;32.70;99.90;;;;;;5019216;28;20072;-82
2022/07/25 12:23:22;;;;;;;6.45;4.00;;;32.70;99.90;;;;;;5018746;28;20061;-82
2022/07/25 12:25:49;;;;;;;5.43;4.35;;;32.70;99.90;;;;;;5022599;28;20451;-79
2022/07/25 12:28:16;;;;;;;4.60;3.92;;;32.60;99.90;;;;;;5050778;23;20125;-82
2022/07/25 12:30:44;;;;;;;5.20;3.47;;;32.70;99.90;;;;;;5033246;28;20132;-83
2022/07/25 12:33:11;;;;;;;4.80;4.13;;;32.80;99.90;;;;;;5039283;28;20072;-84
2022/07/25 12:35:42;;;;;;;5.22;4.28;;;32.80;99.90;;;;;;5040770;28;20418;-83
2022/07/25 12:38:10;;;;;;;3.92;3.53;;;32.90;99.90;;;;;;5048050;28;20049;-80
2022/07/25 12:40:37;;;;;;;4.82;3.83;;;33.00;99.90;;;;;;5039498;28;20096;-83
2022/07/25 12:43:03;;;;;;;5.65;3.90;;;33.00;99.90;;;;;;5041580;28;20072;-83
2022/07/25 12:45:30;;;;;;;4.63;3.95;;;33.10;99.90;;;;;;5034414;28;20081;-83
2022/07/25 12:47:57;;;;;;;4.93;3.75;;;33.10;99.90;;;;;;5032041;28;20083;-83
2022/07/25 12:50:24;;;;;;;4.40;3.95;;;33.10;99.90;;;;;;5030762;28;20132;-83
2022/07/25 12:52:51;;;;;;;6.40;4.03;;;33.00;99.90;;;;;;5033156;28;20499;-84
2022/07/25 12:55:19;;;;;;;4.72;4.05;;;33.10;99.90;;;;;;5032707;28;20050;-83
2022/07/25 12:57:46;;;;;;;5.57;4.05;;;33.10;99.90;;;;;;5030237;28;20129;-84
2022/07/25 13:00:15;;;;;;;11.23;4.28;;;33.10;99.90;;;;;;5029952;28;20049;-83
2022/07/25 13:02:43;;;;;;;4.50;4.10;;;33.10;99.90;;;;;;5029612;28;20081;-84